EST,Max TemperatureF,Mean TemperatureF,Min TemperatureF,Max Dew PointF,MeanDew PointF,Min DewpointF,Max Humidity, Mean Humidity, Min Humidity, Max Sea Level PressureIn, Mean Sea Level PressureIn, Min Sea Level PressureIn, Max VisibilityMiles, Mean VisibilityMiles, Min VisibilityMiles, Max Wind SpeedMPH, Mean Wind SpeedMPH, Max Gust SpeedMPH,PrecipitationIn, CloudCover, Events, WindDirDegrees
2013-2-1,32,28,24,16,11,6,69,50,35,30.23,29.95,29.80,10,10,9,20,11,28,0.00,3,,274
2013-2-2,28,24,19,21,11,4,88,60,35,30.30,30.17,30.06,10,8,2,16,9,21,0.02,5,Snow,253
2013-2-3,32,26,21,21,19,15,93,76,58,30.04,29.90,29.79,10,8,2,8,2,,0.01,5,Snow,321
2013-2-4,30,26,23,20,10,6,75,49,36,29.98,29.93,29.81,10,10,10,17,11,30,0.00,2,,265
2013-2-5,30,28,26,28,24,12,93,82,51,29.98,29.93,29.90,10,5,2,8,3,,0.01,8,Snow,30
2013-2-6,39,33,27,28,21,1,96,69,29,30.35,30.07,29.92,10,7,4,16,5,25,0.01,4,Rain-Snow,313
2013-2-7,32,27,24,22,9,4,66,46,37,30.52,30.43,30.34,10,10,10,8,4,,0.00,3,,15
2013-2-8,34,30,26,31,29,24,100,88,67,30.31,29.90,29.64,10,2,0,18,11,30,0.89,8,Fog-Rain-Snow,31
2013-2-9,32,26,19,28,17,3,100,68,34,30.35,29.98,29.77,10,8,0,26,11,36,0.18,3,Fog-Snow,332
2013-2-10,34,23,12,24,11,5,77,56,37,30.48,30.40,30.33,10,10,10,9,4,,0.00,0,,279
2013-2-11,41,36,32,40,35,21,100,94,64,30.31,29.87,29.66,10,3,0,7,3,,0.42,7,Fog-Rain,323
2013-2-12,44,40,35,37,25,23,97,55,45,30.00,29.87,29.72,10,10,10,20,9,24,0.00,4,,269
2013-2-13,44,34,25,34,25,20,93,66,43,29.96,29.84,29.72,10,9,3,9,3,,0.04,3,Rain-Snow,322
2013-2-14,45,38,30,32,29,22,93,74,40,29.99,29.90,29.72,10,8,4,9,5,23,0.01,2,Rain-Snow,299
2013-2-15,55,44,33,37,32,26,85,67,42,30.01,29.96,29.91,10,9,4,16,5,23,0.00,3,Rain,182
2013-2-16,37,34,30,34,27,14,93,73,50,29.97,29.91,29.74,10,9,5,13,8,18,0.05,8,Rain-Snow,353
2013-2-17,30,24,18,12,5,-1,51,40,32,29.99,29.76,29.67,10,10,10,31,17,45,0.00,2,,325
2013-2-18,35,26,17,12,6,1,54,43,31,30.24,30.17,30.03,10,10,10,22,13,29,0.00,0,,279
2013-2-19,46,36,27,43,31,14,96,72,46,30.19,29.88,29.67,10,10,5,26,5,33,0.21,4,Rain,214
2013-2-20,36,31,26,22,13,9,57,49,42,29.98,29.85,29.73,10,10,10,20,15,30,0.00,4,,282
2013-2-21,34,29,24,14,12,10,62,51,42,30.28,30.07,29.98,10,10,10,20,13,31,0.00,2,,313
2013-2-22,37,30,24,30,21,14,76,64,50,30.40,30.33,30.26,10,10,9,8,5,,0.00,3,Snow,75
2013-2-23,42,38,35,41,37,32,100,95,82,30.27,30.04,29.81,9,3,2,12,5,18,0.15,8,Rain,52
2013-2-24,46,40,33,37,31,21,97,74,53,29.97,29.82,29.74,10,9,3,20,9,28,0.02,6,Rain,327
2013-2-25,44,37,30,28,25,22,79,60,47,30.23,30.13,29.99,10,10,10,10,7,16,0.00,4,,332
2013-2-26,43,36,30,34,29,26,89,71,60,30.29,30.17,29.91,10,10,3,18,5,31,0.11,5,Rain,74
2013-2-27,46,42,37,45,40,34,97,89,68,29.89,29.61,29.49,10,5,2,26,14,44,0.82,7,Rain,66
2013-2-28,48,44,37,37,33,28,89,70,52,29.62,29.58,29.54,10,10,9,12,4,,0.00,7,Rain,293